createdAt,value
2019-02-16T00:00:21.849Z,35.17
2019-02-16T00:02:50.197Z,35.65
2019-02-16T00:05:18.583Z,34.98
2019-02-16T00:07:47.067Z,35.06
2019-02-16T00:10:15.451Z,35.26
2019-02-16T00:12:43.839Z,35.30
2019-02-16T00:15:12.230Z,35.41
2019-02-16T00:17:41.609Z,35.16
2019-02-16T00:20:10.025Z,35.19
2019-02-16T00:22:38.412Z,35.35
2019-02-16T00:25:06.890Z,35.29
2019-02-16T00:27:35.278Z,35.52
2019-02-16T00:30:04.720Z,35.29
2019-02-16T00:32:33.174Z,35.64
2019-02-16T00:35:01.572Z,35.31
2019-02-16T00:37:29.960Z,35.76
2019-02-16T00:39:58.362Z,35.54
2019-02-16T00:42:26.749Z,35.73
2019-02-16T00:44:55.153Z,35.58
2019-02-16T00:47:23.534Z,35.72
2019-02-16T00:49:51.931Z,35.48
2019-02-16T00:52:20.331Z,35.99
2019-02-16T00:54:48.733Z,35.78
2019-02-16T00:57:19.534Z,35.39
2019-02-16T00:59:48.118Z,35.68
2019-02-16T01:02:16.578Z,35.52
2019-02-16T01:04:45.649Z,35.51
2019-02-16T01:07:14.105Z,35.69
2019-02-16T01:09:42.520Z,35.79
2019-02-16T01:12:10.919Z,35.82
2019-02-16T01:14:39.311Z,35.70
2019-02-16T01:17:07.720Z,35.55
2019-02-16T01:19:36.126Z,35.32
2019-02-16T01:22:04.539Z,35.71
2019-02-16T01:24:32.944Z,35.06
2019-02-16T01:27:01.329Z,35.79
2019-02-16T01:29:29.723Z,35.90
2019-02-16T01:31:58.116Z,35.24
2019-02-16T01:34:26.527Z,35.44
2019-02-16T01:36:54.916Z,34.88
2019-02-16T01:39:23.317Z,35.97
2019-02-16T01:41:51.701Z,35.96
2019-02-16T01:44:20.108Z,34.74
2019-02-16T01:46:48.494Z,36.05
2019-02-16T01:49:16.895Z,35.92
2019-02-16T01:51:45.928Z,35.92
2019-02-16T01:54:14.333Z,35.91
2019-02-16T01:56:42.719Z,35.96
2019-02-16T01:59:11.117Z,35.77
2019-02-16T02:01:39.556Z,35.78
2019-02-16T02:04:08.048Z,36.22
2019-02-16T02:06:36.438Z,36.16
2019-02-16T02:09:06.371Z,36.06
2019-02-16T02:11:34.895Z,36.10
2019-02-16T02:14:03.296Z,36.07
2019-02-16T02:16:31.685Z,36.30
2019-02-16T02:19:00.075Z,36.26
2019-02-16T02:21:28.468Z,36.45
2019-02-16T02:23:56.849Z,36.14
2019-02-16T02:26:25.239Z,36.32
2019-02-16T02:28:53.627Z,36.15
2019-02-16T02:31:22.011Z,36.66
2019-02-16T02:33:50.389Z,36.48
2019-02-16T02:36:18.776Z,35.65
2019-02-16T02:38:47.193Z,36.46
2019-02-16T02:41:16.270Z,36.55
2019-02-16T02:43:44.653Z,36.82
2019-02-16T02:46:13.041Z,36.70
2019-02-16T02:48:41.419Z,36.76
2019-02-16T02:51:09.803Z,36.92
2019-02-16T02:53:38.180Z,37.10
2019-02-16T02:56:06.568Z,36.60
2019-02-16T02:58:34.957Z,37.07
2019-02-16T03:01:03.349Z,37.05
2019-02-16T03:03:31.742Z,37.16
2019-02-16T03:06:00.136Z,37.24
2019-02-16T03:08:28.510Z,37.37
2019-02-16T03:10:56.896Z,37.43
2019-02-16T03:13:25.290Z,36.87
2019-02-16T03:15:53.667Z,37.23
2019-02-16T03:18:22.044Z,36.89
2019-02-16T03:20:50.427Z,37.05
2019-02-16T03:23:20.046Z,37.15
2019-02-16T03:25:51.820Z,37.29
2019-02-16T03:28:44.479Z,37.23
2019-02-16T03:31:42.749Z,37.21
2019-02-16T03:34:16.972Z,37.40
2019-02-16T03:37:08.070Z,37.09
2019-02-16T03:39:38.093Z,37.59
2019-02-16T03:42:06.475Z,37.63
2019-02-16T03:44:34.854Z,37.58
2019-02-16T03:47:03.247Z,37.63
2019-02-16T03:49:31.623Z,37.54
2019-02-16T03:51:59.999Z,36.90
2019-02-16T03:54:28.384Z,37.07
2019-02-16T03:56:56.758Z,37.44
2019-02-16T03:59:25.142Z,37.59
2019-02-16T04:01:53.532Z,37.27
2019-02-16T04:04:21.890Z,37.51
2019-02-16T04:06:50.272Z,36.80
2019-02-16T04:09:18.646Z,37.04
2019-02-16T04:11:47.160Z,37.45
2019-02-16T04:14:15.481Z,36.22
2019-02-16T04:16:43.867Z,37.52
2019-02-16T04:19:12.247Z,37.85
2019-02-16T04:21:40.630Z,37.76
2019-02-16T04:24:08.996Z,37.47
2019-02-16T04:26:37.376Z,37.53
2019-02-16T04:29:05.744Z,37.67
2019-02-16T04:31:34.125Z,37.69
2019-02-16T04:34:02.495Z,37.42
2019-02-16T04:36:30.876Z,36.85
2019-02-16T04:38:59.248Z,37.88
2019-02-16T04:41:27.625Z,36.92
2019-02-16T04:43:55.997Z,37.32
2019-02-16T04:46:24.386Z,38.00
2019-02-16T04:48:52.753Z,37.46
2019-02-16T04:51:21.144Z,37.94
2019-02-16T04:53:49.522Z,37.62
2019-02-16T04:56:17.897Z,37.17
2019-02-16T04:58:47.277Z,37.64
2019-02-16T05:01:15.650Z,38.16
2019-02-16T05:03:44.019Z,38.20
2019-02-16T05:06:12.399Z,37.94
2019-02-16T05:08:40.765Z,37.98
2019-02-16T05:11:09.160Z,38.31
2019-02-16T05:13:37.521Z,35.88
2019-02-16T05:16:05.972Z,38.07
2019-02-16T05:18:34.348Z,38.09
2019-02-16T05:21:02.722Z,38.39
2019-02-16T05:23:31.098Z,38.27
2019-02-16T05:25:59.473Z,37.29
2019-02-16T05:28:27.850Z,37.97
2019-02-16T05:30:56.239Z,36.12
2019-02-16T05:33:24.598Z,37.81
2019-02-16T05:35:52.963Z,37.83
2019-02-16T05:38:21.349Z,37.95
2019-02-16T05:40:49.722Z,38.17
2019-02-16T05:43:18.088Z,37.93
2019-02-16T05:45:46.506Z,38.81
2019-02-16T05:48:14.850Z,39.09
2019-02-16T05:50:43.207Z,36.14
2019-02-16T05:53:11.591Z,38.33
2019-02-16T05:55:39.973Z,38.59
2019-02-16T05:58:08.358Z,38.18
2019-02-16T06:00:36.730Z,37.51
2019-02-16T06:03:05.117Z,38.89
2019-02-16T06:05:33.479Z,38.84
2019-02-16T06:08:01.860Z,38.68
2019-02-16T06:10:30.339Z,37.59
2019-02-16T06:13:01.963Z,38.86
2019-02-16T06:15:30.279Z,38.58
2019-02-16T06:17:58.662Z,39.01
2019-02-16T06:20:27.036Z,38.58
2019-02-16T06:23:03.768Z,37.64
2019-02-16T06:25:25.539Z,37.98
2019-02-16T06:27:53.917Z,37.56
2019-02-16T06:30:22.286Z,38.17
2019-02-16T06:32:50.679Z,37.61
2019-02-16T06:35:20.748Z,36.85
2019-02-16T06:37:49.130Z,39.10
2019-02-16T06:40:18.278Z,36.40
2019-02-16T06:42:46.664Z,38.57
2019-02-16T06:45:15.034Z,38.73
2019-02-16T06:47:43.418Z,38.93
2019-02-16T06:50:11.788Z,38.27
2019-02-16T06:52:40.179Z,37.04
2019-02-16T06:55:08.543Z,36.81
2019-02-16T06:57:37.402Z,39.08
2019-02-16T07:00:08.790Z,38.69
2019-02-16T07:02:37.280Z,39.05
2019-02-16T07:05:06.993Z,41.12
2019-02-16T07:07:35.369Z,37.85
2019-02-16T07:10:06.021Z,36.79
2019-02-16T07:12:34.522Z,38.08
2019-02-16T07:15:02.971Z,37.32
2019-02-16T07:17:35.767Z,35.34
2019-02-16T07:20:05.181Z,37.01
2019-02-16T07:22:33.562Z,38.15
2019-02-16T07:25:01.936Z,37.53
2019-02-16T07:27:30.319Z,38.84
2019-02-16T07:29:58.695Z,38.60
2019-02-16T07:32:27.080Z,39.14
2019-02-16T07:34:55.457Z,39.05
2019-02-16T07:37:23.844Z,39.59
2019-02-16T07:39:52.220Z,39.00
2019-02-16T07:42:20.605Z,38.77
2019-02-16T07:44:50.623Z,38.14
2019-02-16T07:47:23.300Z,37.91
2019-02-16T07:49:59.179Z,38.18
2019-02-16T07:52:32.065Z,38.79
2019-02-16T07:55:14.133Z,38.58
2019-02-16T07:57:49.903Z,38.40
2019-02-16T08:00:26.150Z,38.26
2019-02-16T08:02:58.911Z,38.35
2019-02-16T08:05:37.677Z,38.36
2019-02-16T08:08:10.758Z,38.26
2019-02-16T08:10:52.934Z,38.34
2019-02-16T08:13:22.966Z,38.44
2019-02-16T08:15:52.981Z,38.51
2019-02-16T08:18:25.755Z,38.47
2019-02-16T08:21:01.775Z,38.57
2019-02-16T08:23:40.186Z,38.63
2019-02-16T08:26:06.271Z,38.72
2019-02-16T08:28:41.764Z,38.87
2019-02-16T08:34:12.228Z,39.00
2019-02-16T08:36:44.914Z,39.03
2019-02-16T08:39:14.936Z,39.29
2019-02-16T08:41:53.654Z,39.15
2019-02-16T08:44:35.644Z,39.13
2019-02-16T08:47:08.095Z,39.19
2019-02-16T08:49:40.604Z,39.14
2019-02-16T08:52:25.602Z,39.00
2019-02-16T08:55:04.407Z,39.15
2019-02-16T08:57:52.782Z,38.97
2019-02-16T09:00:38.179Z,39.07
2019-02-16T09:03:08.207Z,39.16
2019-02-16T09:05:38.222Z,39.27
2019-02-16T09:08:20.493Z,39.25
2019-02-16T09:10:51.064Z,39.21
2019-02-16T09:13:26.835Z,39.07
2019-02-16T09:15:56.846Z,39.08
2019-02-16T09:18:26.861Z,39.09
2019-02-16T09:21:03.037Z,39.02
2019-02-16T09:23:49.240Z,39.00
2019-02-16T09:26:31.518Z,38.82
2019-02-16T09:29:10.548Z,38.75
2019-02-16T09:31:55.782Z,38.78
2019-02-16T09:34:37.913Z,38.70
2019-02-16T09:37:26.179Z,38.62
2019-02-16T09:40:12.190Z,38.43
2019-02-16T09:43:01.684Z,38.43
2019-02-16T09:45:31.793Z,38.57
2019-02-16T09:48:14.083Z,38.75
2019-02-16T09:50:47.138Z,38.58
2019-02-16T09:53:17.151Z,38.49
2019-02-16T09:55:49.689Z,38.54
2019-02-16T09:58:25.430Z,38.44
2019-02-16T10:01:01.154Z,38.39
2019-02-16T10:03:34.188Z,38.31
2019-02-16T10:06:13.468Z,38.32
2019-02-16T10:08:59.525Z,38.29
2019-02-16T10:11:29.542Z,38.23
2019-02-16T10:14:15.760Z,38.15
2019-02-16T10:17:00.524Z,38.15
2019-02-16T10:19:45.832Z,38.10
2019-02-16T10:22:15.846Z,38.09
2019-02-16T10:24:45.868Z,38.06
2019-02-16T10:27:32.556Z,38.02
2019-02-16T10:30:14.430Z,37.97
2019-02-16T10:32:59.587Z,37.97
2019-02-16T10:35:36.758Z,37.99
2019-02-16T10:38:18.550Z,37.91
2019-02-16T10:40:54.165Z,37.84
2019-02-16T10:43:24.192Z,37.76
2019-02-16T10:46:10.483Z,37.87
2019-02-16T10:48:46.184Z,37.93
2019-02-16T10:51:30.896Z,37.99
2019-02-16T10:54:01.099Z,37.92
2019-02-16T10:56:33.562Z,37.83
2019-02-16T10:59:03.587Z,37.71
2019-02-16T11:01:49.950Z,37.64
2019-02-16T11:04:37.700Z,37.62
2019-02-16T11:07:12.486Z,37.57
2019-02-16T11:09:45.220Z,37.68
2019-02-16T11:12:17.630Z,37.63
2019-02-16T11:14:53.854Z,37.68
2019-02-16T11:17:40.276Z,37.68
2019-02-16T11:20:12.965Z,37.63
2019-02-16T11:22:42.982Z,37.51
2019-02-16T11:25:16.151Z,37.48
2019-02-16T11:27:58.411Z,37.06
2019-02-16T11:30:28.432Z,36.84
2019-02-16T11:33:10.062Z,37.00
2019-02-16T11:35:42.985Z,36.74
2019-02-16T11:38:16.411Z,36.49
2019-02-16T11:40:55.446Z,34.88
2019-02-16T11:43:25.467Z,33.06
2019-02-16T11:45:58.461Z,33.75
2019-02-16T11:48:44.483Z,34.43
2019-02-16T11:51:29.906Z,34.54
2019-02-16T11:53:59.918Z,34.74
2019-02-16T11:56:46.331Z,35.12
2019-02-16T11:59:34.218Z,35.29
2019-02-16T12:02:04.244Z,35.46
2019-02-16T12:04:34.261Z,35.59
2019-02-16T12:07:06.942Z,35.70
2019-02-16T12:09:39.929Z,35.52
2019-02-16T12:12:26.022Z,35.63
2019-02-16T12:17:56.166Z,35.54
2019-02-16T12:20:33.415Z,35.56
2019-02-16T12:23:06.740Z,35.85
2019-02-16T12:25:45.393Z,35.93
2019-02-16T12:28:15.472Z,36.09
2019-02-16T12:30:45.442Z,36.20
2019-02-16T12:33:21.225Z,36.30
2019-02-16T12:35:56.962Z,36.40
2019-02-16T12:38:26.980Z,36.51
2019-02-16T12:40:57.057Z,36.60
2019-02-16T12:43:43.222Z,36.68
2019-02-16T12:46:24.946Z,36.63
2019-02-16T12:49:00.659Z,36.37
2019-02-16T12:51:46.869Z,36.20
2019-02-16T12:54:29.169Z,36.04
2019-02-16T12:56:59.206Z,35.88
2019-02-16T12:59:35.169Z,36.13
2019-02-16T13:02:07.810Z,36.19
2019-02-16T13:04:37.841Z,36.42
2019-02-16T13:07:07.878Z,36.62
2019-02-16T13:09:37.902Z,36.85
2019-02-16T13:12:10.897Z,36.81
2019-02-16T13:14:46.936Z,36.85
2019-02-16T13:17:25.617Z,36.89
2019-02-16T13:20:13.776Z,36.98
2019-02-16T13:22:55.772Z,37.41
2019-02-16T13:25:25.803Z,37.53
2019-02-16T13:28:01.584Z,37.58
2019-02-16T13:30:31.614Z,37.68
2019-02-16T13:33:08.728Z,37.76
2019-02-16T13:35:39.968Z,37.87
2019-02-16T13:38:25.410Z,38.07
2019-02-16T13:40:55.465Z,38.28
2019-02-16T13:43:37.522Z,38.19
2019-02-16T13:46:16.405Z,38.19
2019-02-16T13:48:52.496Z,38.27
2019-02-16T13:51:23.196Z,38.41
2019-02-16T13:53:53.269Z,38.42
2019-02-16T13:56:38.595Z,38.56
2019-02-16T13:59:08.631Z,38.64
2019-02-16T14:01:38.700Z,38.47
2019-02-16T14:04:15.751Z,36.04
2019-02-16T14:06:48.528Z,35.23
2019-02-16T14:09:21.351Z,35.44
2019-02-16T14:11:54.251Z,34.33
2019-02-16T14:14:42.461Z,34.58
2019-02-16T14:17:27.505Z,34.44
2019-02-16T14:19:55.927Z,35.52
2019-02-16T14:22:24.378Z,35.56
2019-02-16T14:24:54.429Z,35.56
2019-02-16T14:27:22.852Z,35.67
2019-02-16T14:29:51.261Z,35.83
2019-02-16T14:32:19.678Z,35.92
2019-02-16T14:34:48.097Z,36.01
2019-02-16T14:37:18.160Z,36.07
2019-02-16T14:39:46.557Z,36.04
2019-02-16T14:42:14.969Z,36.01
2019-02-16T14:44:43.386Z,35.70
2019-02-16T14:47:11.822Z,35.15
2019-02-16T14:49:40.238Z,34.27
2019-02-16T14:52:08.639Z,35.06
2019-02-16T14:54:37.022Z,34.39
2019-02-16T14:57:05.465Z,34.39
2019-02-16T14:59:33.825Z,34.14
2019-02-16T15:02:02.214Z,34.14
2019-02-16T15:04:30.590Z,33.70
2019-02-16T15:06:58.997Z,33.71
2019-02-16T15:09:27.378Z,33.61
2019-02-16T15:11:55.747Z,33.57
2019-02-16T15:14:24.141Z,33.55
2019-02-16T15:16:52.512Z,33.74
2019-02-16T15:19:20.897Z,33.80
2019-02-16T15:21:49.268Z,33.87
2019-02-16T15:24:17.654Z,33.95
2019-02-16T15:26:46.040Z,34.06
2019-02-16T15:29:14.434Z,34.21
2019-02-16T15:31:42.809Z,34.29
2019-02-16T15:34:11.192Z,34.43
2019-02-16T15:36:39.573Z,34.54
2019-02-16T15:39:08.045Z,34.66
2019-02-16T15:41:36.420Z,34.80
2019-02-16T15:44:04.801Z,34.90
2019-02-16T15:46:33.181Z,35.10
2019-02-16T15:49:01.574Z,35.21
2019-02-16T15:51:29.948Z,35.33
2019-02-16T15:53:58.336Z,35.44
2019-02-16T15:56:26.716Z,35.54
2019-02-16T15:58:55.147Z,35.66
2019-02-16T16:01:23.513Z,35.79
2019-02-16T16:03:51.954Z,36.08
2019-02-16T16:06:20.316Z,36.22
2019-02-16T16:08:56.157Z,36.33
2019-02-16T16:11:29.239Z,36.33
2019-02-16T16:14:14.433Z,36.60
2019-02-16T16:17:00.648Z,36.69
2019-02-16T16:19:31.205Z,36.81
2019-02-16T16:22:03.708Z,36.84
2019-02-16T16:24:36.610Z,36.92
2019-02-16T16:27:12.058Z,37.10
2019-02-16T16:30:00.369Z,37.06
2019-02-16T16:32:46.186Z,37.07
2019-02-16T16:35:16.216Z,37.13
2019-02-16T16:37:48.941Z,37.22
2019-02-16T16:40:37.353Z,37.37
2019-02-16T16:43:07.432Z,37.40
2019-02-16T16:45:43.346Z,37.40
2019-02-16T16:48:16.062Z,37.36
2019-02-16T16:51:02.412Z,37.47
2019-02-16T16:53:35.392Z,37.49
2019-02-16T16:56:11.035Z,37.71
2019-02-16T16:58:41.071Z,38.05
2019-02-16T17:01:23.468Z,38.03
2019-02-16T17:04:09.518Z,37.95
2019-02-16T17:06:45.290Z,38.56
2019-02-16T17:09:20.914Z,38.81
2019-02-16T17:11:53.478Z,38.74
2019-02-16T17:14:39.794Z,38.84
2019-02-16T17:17:19.173Z,38.96
2019-02-16T17:19:58.152Z,38.90
2019-02-16T17:22:31.442Z,39.22
2019-02-16T17:25:14.278Z,39.32
2019-02-16T17:27:44.303Z,39.91
2019-02-16T17:30:17.038Z,39.91
2019-02-16T17:32:47.058Z,39.83
2019-02-16T17:35:21.059Z,39.95
2019-02-16T17:38:07.375Z,40.10
2019-02-16T17:40:53.292Z,40.25
2019-02-16T17:43:26.035Z,40.25
2019-02-16T17:45:56.143Z,40.24
2019-02-16T17:48:31.954Z,40.24
2019-02-16T17:51:01.936Z,40.22
2019-02-16T17:53:31.955Z,40.29
2019-02-16T17:56:01.994Z,40.26
2019-02-16T17:58:32.088Z,40.29
2019-02-16T18:01:04.727Z,40.38
2019-02-16T18:03:37.405Z,40.27
2019-02-16T18:06:07.446Z,40.40
2019-02-16T18:08:49.308Z,40.51
2019-02-16T18:11:25.043Z,40.71
2019-02-16T18:13:57.776Z,40.72
2019-02-16T18:16:27.868Z,40.85
2019-02-16T18:19:00.759Z,40.90
2019-02-16T18:21:33.489Z,41.03
2019-02-16T18:24:03.504Z,41.11
2019-02-16T18:26:56.482Z,41.21
2019-02-16T18:29:23.916Z,41.29
2019-02-16T18:31:53.922Z,41.39
2019-02-16T18:34:32.867Z,41.26
2019-02-16T18:37:20.976Z,40.84
2019-02-16T18:39:53.840Z,40.91
2019-02-16T18:42:33.124Z,40.98
2019-02-16T18:45:18.435Z,41.00
2019-02-16T18:48:00.242Z,40.93
2019-02-16T18:50:46.619Z,40.99
2019-02-16T18:53:16.637Z,41.29
2019-02-16T18:58:32.217Z,41.64
2019-02-16T19:01:20.296Z,41.68
2019-02-16T19:03:53.063Z,41.67
2019-02-16T19:06:39.723Z,41.74
2019-02-16T19:09:09.819Z,41.81
2019-02-16T19:11:42.263Z,41.71
2019-02-16T19:14:12.283Z,41.77
2019-02-16T19:16:42.328Z,41.85
2019-02-16T19:19:30.138Z,41.94
2019-02-16T19:22:00.160Z,41.99
2019-02-16T19:24:42.248Z,41.99
2019-02-16T19:27:28.577Z,42.02
2019-02-16T19:30:13.705Z,41.96
2019-02-16T19:32:49.486Z,42.07
2019-02-16T19:35:22.024Z,42.24
2019-02-16T19:37:52.049Z,41.97
2019-02-16T19:40:27.804Z,41.83
2019-02-16T19:42:57.825Z,41.49
2019-02-16T19:45:30.778Z,41.39
2019-02-16T19:48:00.791Z,41.21
2019-02-16T19:50:36.464Z,41.08
2019-02-16T19:53:09.159Z,42.09
2019-02-16T19:55:39.209Z,42.45
2019-02-16T19:58:15.061Z,42.80
2019-02-16T20:00:48.033Z,43.63
2019-02-16T20:03:32.830Z,45.07
2019-02-16T20:06:19.530Z,46.57
2019-02-16T20:08:52.501Z,46.68
2019-02-16T20:11:38.784Z,46.74
2019-02-16T20:14:24.099Z,46.67
2019-02-16T20:16:54.136Z,46.78
2019-02-16T20:19:32.647Z,46.22
2019-02-16T20:22:02.674Z,46.06
2019-02-16T20:24:38.745Z,46.52
2019-02-16T20:27:11.764Z,46.31
2019-02-16T20:29:41.788Z,46.08
2019-02-16T20:32:23.812Z,46.06
2019-02-16T20:34:56.555Z,45.73
2019-02-16T20:37:32.575Z,45.84
2019-02-16T20:40:05.112Z,45.91
2019-02-16T20:42:38.045Z,46.34
2019-02-16T20:45:09.506Z,45.36
2019-02-16T20:47:45.058Z,45.33
2019-02-16T20:50:29.960Z,44.83
2019-02-16T20:53:00.009Z,45.40
2019-02-16T20:55:32.732Z,45.36
2019-02-16T20:58:02.831Z,45.31
2019-02-16T21:00:49.353Z,45.11
2019-02-16T21:03:25.704Z,45.15
2019-02-16T21:06:04.701Z,44.99
2019-02-16T21:08:51.205Z,44.73
2019-02-16T21:11:24.230Z,44.50
2019-02-16T21:14:05.949Z,44.87
2019-02-16T21:16:51.164Z,44.63
2019-02-16T21:19:21.186Z,45.13
2019-02-16T21:22:03.228Z,44.72
2019-02-16T21:24:38.714Z,44.81
2019-02-16T21:27:23.351Z,44.99
2019-02-16T21:30:08.657Z,45.08
2019-02-16T21:32:50.710Z,45.01
2019-02-16T21:35:38.995Z,44.86
2019-02-16T21:38:09.029Z,44.84
2019-02-16T21:40:50.924Z,44.80
2019-02-16T21:43:30.239Z,44.67
2019-02-16T21:46:00.261Z,44.99
2019-02-16T21:48:30.285Z,45.10
2019-02-16T21:51:00.305Z,45.08
2019-02-16T21:53:42.316Z,45.17
2019-02-16T21:56:12.344Z,45.22
2019-02-16T21:58:42.376Z,45.28
2019-02-16T22:01:18.191Z,45.33
2019-02-16T22:03:48.284Z,44.94
2019-02-16T22:06:18.311Z,44.86
2019-02-16T22:09:04.198Z,44.51
2019-02-16T22:11:34.220Z,44.66
2019-02-16T22:14:02.619Z,44.60
2019-02-16T22:16:31.621Z,44.02
2019-02-16T22:19:00.027Z,44.03
2019-02-16T22:21:28.411Z,43.87
2019-02-16T22:23:56.796Z,43.79
2019-02-16T22:26:25.178Z,43.72
2019-02-16T22:28:53.564Z,43.09
2019-02-16T22:31:21.937Z,43.81
2019-02-16T22:33:50.330Z,44.00
2019-02-16T22:36:18.706Z,44.01
2019-02-16T22:38:47.089Z,43.71
2019-02-16T22:41:15.461Z,43.83
2019-02-16T22:43:43.846Z,43.93
2019-02-16T22:46:12.222Z,44.07
2019-02-16T22:48:40.613Z,44.11
2019-02-16T22:51:09.064Z,44.08
2019-02-16T22:53:37.446Z,43.49
2019-02-16T22:56:05.826Z,43.98
2019-02-16T22:58:34.222Z,44.09
2019-02-16T23:01:02.591Z,44.03
2019-02-16T23:03:30.991Z,44.09
2019-02-16T23:05:59.370Z,44.08
2019-02-16T23:08:27.829Z,43.99
2019-02-16T23:10:56.206Z,44.05
2019-02-16T23:13:24.640Z,43.99
2019-02-16T23:15:53.091Z,43.97
2019-02-16T23:18:21.484Z,43.89
2019-02-16T23:20:50.104Z,43.74
2019-02-16T23:23:18.496Z,43.82
2019-02-16T23:25:46.941Z,43.61
2019-02-16T23:28:15.395Z,43.68
2019-02-16T23:30:43.841Z,43.56
2019-02-16T23:33:12.229Z,43.80
2019-02-16T23:35:40.614Z,43.87
2019-02-16T23:38:09.078Z,43.89
2019-02-16T23:40:37.453Z,43.92
2019-02-16T23:43:05.828Z,44.02
2019-02-16T23:45:34.214Z,43.88
2019-02-16T23:48:02.602Z,43.89
2019-02-16T23:50:30.979Z,43.73
2019-02-16T23:52:59.352Z,43.92
2019-02-16T23:55:27.749Z,44.06
2019-02-16T23:57:56.130Z,43.64
